sensor_id;sensor_type;location;lat;lon;timestamp;pressure;altitude;pressure_sealevel;temperature
48854;BMP280;34673;52.808;17.856;2022-12-20T00:01:23;100785.47;;;0.55
48854;BMP280;34673;52.808;17.856;2022-12-20T00:03:52;100787.19;;;0.56
48854;BMP280;34673;52.808;17.856;2022-12-20T00:06:21;100793.16;;;0.56
48854;BMP280;34673;52.808;17.856;2022-12-20T00:08:52;100780.50;;;0.58
48854;BMP280;34673;52.808;17.856;2022-12-20T00:11:20;100780.50;;;0.58
48854;BMP280;34673;52.808;17.856;2022-12-20T00:13:47;100766.94;;;0.59
48854;BMP280;34673;52.808;17.856;2022-12-20T00:16:18;100770.44;;;0.61
48854;BMP280;34673;52.808;17.856;2022-12-20T00:18:49;100759.13;;;0.54
48854;BMP280;34673;52.808;17.856;2022-12-20T00:21:16;100767.94;;;0.62
48854;BMP280;34673;52.808;17.856;2022-12-20T00:23:44;100763.72;;;0.63
48854;BMP280;34673;52.808;17.856;2022-12-20T00:26:14;100756.88;;;0.62
48854;BMP280;34673;52.808;17.856;2022-12-20T00:28:43;100762.09;;;0.65
48854;BMP280;34673;52.808;17.856;2022-12-20T00:31:13;100738.59;;;0.50
48854;BMP280;34673;52.808;17.856;2022-12-20T00:33:43;100755.38;;;0.67
48854;BMP280;34673;52.808;17.856;2022-12-20T00:36:11;100753.78;;;0.69
48854;BMP280;34673;52.808;17.856;2022-12-20T00:38:39;100767.31;;;0.68
48854;BMP280;34673;52.808;17.856;2022-12-20T00:41:12;100773.41;;;0.72
48854;BMP280;34673;52.808;17.856;2022-12-20T00:43:40;100775.88;;;0.70
48854;BMP280;34673;52.808;17.856;2022-12-20T00:46:10;100777.75;;;0.74
48854;BMP280;34673;52.808;17.856;2022-12-20T00:48:38;100782.84;;;0.74
48854;BMP280;34673;52.808;17.856;2022-12-20T00:51:09;100779.22;;;0.69
48854;BMP280;34673;52.808;17.856;2022-12-20T00:53:38;100777.75;;;0.74
48854;BMP280;34673;52.808;17.856;2022-12-20T00:56:06;100772.66;;;0.74
48854;BMP280;34673;52.808;17.856;2022-12-20T00:58:36;100767.44;;;0.71
48854;BMP280;34673;52.808;17.856;2022-12-20T01:01:05;100781.06;;;0.73
48854;BMP280;34673;52.808;17.856;2022-12-20T01:03:33;100758.78;;;0.68
48854;BMP280;34673;52.808;17.856;2022-12-20T01:06:01;100759.72;;;0.70
48854;BMP280;34673;52.808;17.856;2022-12-20T01:08:30;100769.28;;;0.75
48854;BMP280;34673;52.808;17.856;2022-12-20T01:10:59;100769.28;;;0.75
48854;BMP280;34673;52.808;17.856;2022-12-20T01:13:27;100773.63;;;0.78
48854;BMP280;34673;52.808;17.856;2022-12-20T01:15:54;100769.34;;;0.77
48854;BMP280;34673;52.808;17.856;2022-12-20T01:18:22;100773.63;;;0.78
48854;BMP280;34673;52.808;17.856;2022-12-20T01:20:59;100767.66;;;0.77
48854;BMP280;34673;52.808;17.856;2022-12-20T01:23:27;100759.09;;;0.75
48854;BMP280;34673;52.808;17.856;2022-12-20T01:25:57;100748.88;;;0.74
48854;BMP280;34673;52.808;17.856;2022-12-20T01:28:24;100745.44;;;0.73
48854;BMP280;34673;52.808;17.856;2022-12-20T01:30:52;100736.03;;;0.71
48854;BMP280;34673;52.808;17.856;2022-12-20T01:33:20;100743.94;;;0.78
48854;BMP280;34673;52.808;17.856;2022-12-20T01:35:57;100732.84;;;0.76
48854;BMP280;34673;52.808;17.856;2022-12-20T01:38:26;100730.41;;;0.79
48854;BMP280;34673;52.808;17.856;2022-12-20T01:40:54;100730.41;;;0.79
48854;BMP280;34673;52.808;17.856;2022-12-20T01:43:25;100723.56;;;0.78
48854;BMP280;34673;52.808;17.856;2022-12-20T01:45:53;100724.50;;;0.80
48854;BMP280;34673;52.808;17.856;2022-12-20T01:48:24;100710.91;;;0.80
48854;BMP280;34673;52.808;17.856;2022-12-20T01:50:52;100699.59;;;0.73
48854;BMP280;34673;52.808;17.856;2022-12-20T01:53:22;100710.78;;;0.77
48854;BMP280;34673;52.808;17.856;2022-12-20T01:55:50;100711.75;;;0.80
48854;BMP280;34673;52.808;17.856;2022-12-20T01:58:19;100713.47;;;0.81
48854;BMP280;34673;52.808;17.856;2022-12-20T02:00:47;100709.22;;;0.80
48854;BMP280;34673;52.808;17.856;2022-12-20T02:03:15;100712.50;;;0.78
48854;BMP280;34673;52.808;17.856;2022-12-20T02:05:44;100713.47;;;0.81
48854;BMP280;34673;52.808;17.856;2022-12-20T02:08:16;100727.97;;;0.82
48854;BMP280;34673;52.808;17.856;2022-12-20T02:11:13;100720.22;;;0.79
48854;BMP280;34673;52.808;17.856;2022-12-20T02:22:45;100703.28;;;0.81
48854;BMP280;34673;52.808;17.856;2022-12-20T02:30:46;100708.56;;;0.86
48854;BMP280;34673;52.808;17.856;2022-12-20T02:33:15;100705.03;;;0.82
48854;BMP280;34673;52.808;17.856;2022-12-20T02:35:44;100700.16;;;0.88
48854;BMP280;34673;52.808;17.856;2022-12-20T02:38:32;100696.69;;;0.86
48854;BMP280;34673;52.808;17.856;2022-12-20T02:41:28;100693.34;;;0.87
48854;BMP280;34673;52.808;17.856;2022-12-20T02:44:03;100689.97;;;0.88
48854;BMP280;34673;52.808;17.856;2022-12-20T02:46:52;100689.16;;;0.89
48854;BMP280;34673;52.808;17.856;2022-12-20T02:49:21;100699.34;;;0.89
48854;BMP280;34673;52.808;17.856;2022-12-20T02:51:53;100689.97;;;0.88
48854;BMP280;34673;52.808;17.856;2022-12-20T02:54:22;100686.63;;;0.89
48854;BMP280;34673;52.808;17.856;2022-12-20T02:57:05;100689.13;;;0.88
48854;BMP280;34673;52.808;17.856;2022-12-20T02:59:40;100696.81;;;0.89
48854;BMP280;34673;52.808;17.856;2022-12-20T03:02:10;100703.66;;;0.91
48854;BMP280;34673;52.808;17.856;2022-12-20T03:04:39;100700.28;;;0.92
48854;BMP280;34673;52.808;17.856;2022-12-20T03:07:11;100692.63;;;0.92
48854;BMP280;34673;52.808;17.856;2022-12-20T03:09:42;100708.09;;;0.96
48854;BMP280;34673;52.808;17.856;2022-12-20T03:12:12;100700.50;;;0.98
48854;BMP280;34673;52.808;17.856;2022-12-20T03:14:40;100700.63;;;1.01
48854;BMP280;34673;52.808;17.856;2022-12-20T03:17:09;100693.00;;;1.01
48854;BMP280;34673;52.808;17.856;2022-12-20T03:19:37;100683.50;;;0.97
48854;BMP280;34673;52.808;17.856;2022-12-20T03:22:04;100704.97;;;1.03
48854;BMP280;34673;52.808;17.856;2022-12-20T03:24:32;100704.06;;;1.03
48854;BMP280;34673;52.808;17.856;2022-12-20T03:27:00;100697.25;;;1.02
48854;BMP280;34673;52.808;17.856;2022-12-20T03:29:28;100711.78;;;1.04
48854;BMP280;34673;52.808;17.856;2022-12-20T03:31:55;100710.94;;;1.04
48854;BMP280;34673;52.808;17.856;2022-12-20T03:34:22;100717.75;;;1.05
48854;BMP280;34673;52.808;17.856;2022-12-20T03:36:50;100717.75;;;1.05
48854;BMP280;34673;52.808;17.856;2022-12-20T03:39:17;100727.19;;;1.07
48854;BMP280;34673;52.808;17.856;2022-12-20T03:41:45;100722.94;;;1.08
48854;BMP280;34673;52.808;17.856;2022-12-20T03:44:16;100733.13;;;1.08
48854;BMP280;34673;52.808;17.856;2022-12-20T03:46:44;100726.44;;;1.10
48854;BMP280;34673;52.808;17.856;2022-12-20T03:49:11;100723.06;;;1.11
48854;BMP280;34673;52.808;17.856;2022-12-20T03:51:44;100711.03;;;1.07
48854;BMP280;34673;52.808;17.856;2022-12-20T03:54:12;100706.03;;;1.10
48854;BMP280;34673;52.808;17.856;2022-12-20T03:57:02;100697.38;;;1.05
48854;BMP280;34673;52.808;17.856;2022-12-20T03:59:30;100690.69;;;1.08
48854;BMP280;34673;52.808;17.856;2022-12-20T04:01:58;100707.75;;;1.11
48854;BMP280;34673;52.808;17.856;2022-12-20T04:04:28;100697.47;;;1.08
48854;BMP280;34673;52.808;17.856;2022-12-20T04:06:55;100706.16;;;1.13
48854;BMP280;34673;52.808;17.856;2022-12-20T04:09:23;100700.94;;;1.10
48854;BMP280;34673;52.808;17.856;2022-12-20T04:11:56;100709.63;;;1.15
48854;BMP280;34673;52.808;17.856;2022-12-20T04:14:25;100702.91;;;1.17
48854;BMP280;34673;52.808;17.856;2022-12-20T04:16:53;100707.19;;;1.18
48854;BMP280;34673;52.808;17.856;2022-12-20T04:19:22;100704.63;;;1.18
48854;BMP280;34673;52.808;17.856;2022-12-20T04:21:49;100707.28;;;1.21
48854;BMP280;34673;52.808;17.856;2022-12-20T04:24:18;100704.75;;;1.21
48854;BMP280;34673;52.808;17.856;2022-12-20T04:27:07;100703.00;;;1.20
48854;BMP280;34673;52.808;17.856;2022-12-20T04:29:35;100695.31;;;1.19
48854;BMP280;34673;52.808;17.856;2022-12-20T04:32:04;100706.50;;;1.22
48854;BMP280;34673;52.808;17.856;2022-12-20T04:34:31;100698.03;;;1.23
48854;BMP280;34673;52.808;17.856;2022-12-20T04:36:59;100701.50;;;1.25
48854;BMP280;34673;52.808;17.856;2022-12-20T04:39:37;100701.50;;;1.25
48854;BMP280;34673;52.808;17.856;2022-12-20T04:42:23;100704.84;;;1.24
48854;BMP280;34673;52.808;17.856;2022-12-20T04:44:52;100696.41;;;1.25
48854;BMP280;34673;52.808;17.856;2022-12-20T04:47:23;100709.84;;;1.21
48854;BMP280;34673;52.808;17.856;2022-12-20T04:49:52;100696.31;;;1.22
48854;BMP280;34673;52.808;17.856;2022-12-20T04:52:19;100700.56;;;1.23
48854;BMP280;34673;52.808;17.856;2022-12-20T04:55:13;100706.59;;;1.25
48854;BMP280;34673;52.808;17.856;2022-12-20T04:57:40;100708.25;;;1.25
48854;BMP280;34673;52.808;17.856;2022-12-20T05:00:09;100711.59;;;1.22
48854;BMP280;34673;52.808;17.856;2022-12-20T05:02:41;100703.97;;;1.24
48854;BMP280;34673;52.808;17.856;2022-12-20T05:05:12;100705.78;;;1.26
48854;BMP280;34673;52.808;17.856;2022-12-20T05:07:46;100708.31;;;1.26
48854;BMP280;34673;52.808;17.856;2022-12-20T05:10:13;100711.78;;;1.28
48854;BMP280;34673;52.808;17.856;2022-12-20T05:12:42;100714.34;;;1.28
48854;BMP280;34673;52.808;17.856;2022-12-20T05:15:18;100704.94;;;1.27
48854;BMP280;34673;52.808;17.856;2022-12-20T05:17:45;100716.91;;;1.28
48854;BMP280;34673;52.808;17.856;2022-12-20T05:20:13;100706.69;;;1.28
48854;BMP280;34673;52.808;17.856;2022-12-20T05:22:43;100718.63;;;1.29
48854;BMP280;34673;52.808;17.856;2022-12-20T05:25:28;100704.19;;;1.30
48854;BMP280;34673;52.808;17.856;2022-12-20T05:28:15;100703.41;;;1.31
48854;BMP280;34673;52.808;17.856;2022-12-20T05:30:43;100703.44;;;1.32
48854;BMP280;34673;52.808;17.856;2022-12-20T05:33:12;100701.78;;;1.33
48854;BMP280;34673;52.808;17.856;2022-12-20T05:35:42;100701.78;;;1.33
48854;BMP280;34673;52.808;17.856;2022-12-20T05:38:13;100696.72;;;1.35
48854;BMP280;34673;52.808;17.856;2022-12-20T05:40:41;100688.13;;;1.32
48854;BMP280;34673;52.808;17.856;2022-12-20T05:43:10;100696.81;;;1.38
48854;BMP280;34673;52.808;17.856;2022-12-20T05:45:45;100695.09;;;1.37
48854;BMP280;34673;52.808;17.856;2022-12-20T05:48:18;100683.28;;;1.39
48854;BMP280;34673;52.808;17.856;2022-12-20T05:50:51;100686.72;;;1.41
48854;BMP280;34673;52.808;17.856;2022-12-20T05:53:25;100676.53;;;1.41
48854;BMP280;34673;52.808;17.856;2022-12-20T05:55:56;100670.41;;;1.36
48854;BMP280;34673;52.808;17.856;2022-12-20T05:58:33;100681.53;;;1.38
48854;BMP280;34673;52.808;17.856;2022-12-20T06:01:06;100691.72;;;1.38
48854;BMP280;34673;52.808;17.856;2022-12-20T06:03:37;100692.53;;;1.37
48854;BMP280;34673;52.808;17.856;2022-12-20T06:06:09;100700.09;;;1.33
48854;BMP280;34673;52.808;17.856;2022-12-20T06:08:43;100678.78;;;1.31
48854;BMP280;34673;52.808;17.856;2022-12-20T06:11:16;100686.41;;;1.31
48854;BMP280;34673;52.808;17.856;2022-12-20T06:13:51;100683.03;;;1.32
48854;BMP280;34673;52.808;17.856;2022-12-20T06:16:19;100683.03;;;1.32
48854;BMP280;34673;52.808;17.856;2022-12-20T06:18:51;100682.19;;;1.32
48854;BMP280;34673;52.808;17.856;2022-12-20T06:21:20;100683.03;;;1.32
48854;BMP280;34673;52.808;17.856;2022-12-20T06:23:48;100688.13;;;1.32
48854;BMP280;34673;52.808;17.856;2022-12-20T06:26:15;100681.41;;;1.35
48854;BMP280;34673;52.808;17.856;2022-12-20T06:28:49;100681.53;;;1.38
48854;BMP280;34673;52.808;17.856;2022-12-20T06:31:24;100678.19;;;1.39
48854;BMP280;34673;52.808;17.856;2022-12-20T06:33:53;100698.56;;;1.39
48854;BMP280;34673;52.808;17.856;2022-12-20T06:36:23;100705.38;;;1.40
48854;BMP280;34673;52.808;17.856;2022-12-20T06:38:51;100692.72;;;1.41
48854;BMP280;34673;52.808;17.856;2022-12-20T06:41:19;100690.19;;;1.43
48854;BMP280;34673;52.808;17.856;2022-12-20T06:43:46;100689.34;;;1.42
48854;BMP280;34673;52.808;17.856;2022-12-20T06:46:14;100691.81;;;1.41
48854;BMP280;34673;52.808;17.856;2022-12-20T06:48:42;100685.81;;;1.39
48854;BMP280;34673;52.808;17.856;2022-12-20T06:51:11;100667.84;;;1.36
48854;BMP280;34673;52.808;17.856;2022-12-20T06:53:38;100685.16;;;1.44
48854;BMP280;34673;52.808;17.856;2022-12-20T06:56:06;100680.09;;;1.46
48854;BMP280;34673;52.808;17.856;2022-12-20T06:58:33;100688.69;;;1.48
48854;BMP280;34673;52.808;17.856;2022-12-20T07:01:01;100682.81;;;1.50
48854;BMP280;34673;52.808;17.856;2022-12-20T07:03:28;100685.41;;;1.52
48854;BMP280;34673;52.808;17.856;2022-12-20T07:05:56;100684.53;;;1.51
48854;BMP280;34673;52.808;17.856;2022-12-20T07:08:24;100688.78;;;1.51
48854;BMP280;34673;52.808;17.856;2022-12-20T07:10:52;100682.06;;;1.53
48854;BMP280;34673;52.808;17.856;2022-12-20T07:13:20;100693.97;;;1.54
48854;BMP280;34673;52.808;17.856;2022-12-20T07:15:47;100686.06;;;1.46
48854;BMP280;34673;52.808;17.856;2022-12-20T07:18:15;100697.38;;;1.54
48854;BMP280;34673;52.808;17.856;2022-12-20T07:20:42;100698.38;;;1.58
48854;BMP280;34673;52.808;17.856;2022-12-20T07:23:09;100694.06;;;1.57
48854;BMP280;34673;52.808;17.856;2022-12-20T07:25:37;100695.00;;;1.59
48854;BMP280;34673;52.808;17.856;2022-12-20T07:28:04;100692.44;;;1.59
48854;BMP280;34673;52.808;17.856;2022-12-20T07:30:32;100689.06;;;1.60
48854;BMP280;34673;52.808;17.856;2022-12-20T07:32:59;100692.44;;;1.59
48854;BMP280;34673;52.808;17.856;2022-12-20T07:35:26;100690.91;;;1.64
48854;BMP280;34673;52.808;17.856;2022-12-20T07:37:54;100682.44;;;1.65
48854;BMP280;34673;52.808;17.856;2022-12-20T07:40:21;100689.31;;;1.66
48854;BMP280;34673;52.808;17.856;2022-12-20T07:42:48;100690.22;;;1.68
48854;BMP280;34673;52.808;17.856;2022-12-20T07:45:17;100700.41;;;1.68
48854;BMP280;34673;52.808;17.856;2022-12-20T07:47:44;100714.81;;;1.66
48854;BMP280;34673;52.808;17.856;2022-12-20T07:50:12;100713.19;;;1.68
48854;BMP280;34673;52.808;17.856;2022-12-20T07:52:43;100721.03;;;1.74
48854;BMP280;34673;52.808;17.856;2022-12-20T07:55:13;100717.75;;;1.78
48854;BMP280;34673;52.808;17.856;2022-12-20T07:57:45;100715.09;;;1.75
48854;BMP280;34673;52.808;17.856;2022-12-20T08:00:16;100711.84;;;1.80
48854;BMP280;34673;52.808;17.856;2022-12-20T08:02:49;100722.94;;;1.82
48854;BMP280;34673;52.808;17.856;2022-12-20T08:05:21;100716.22;;;1.84
48854;BMP280;34673;52.808;17.856;2022-12-20T08:07:49;100715.41;;;1.85
48854;BMP280;34673;52.808;17.856;2022-12-20T08:10:25;100718.84;;;1.87
48854;BMP280;34673;52.808;17.856;2022-12-20T08:12:54;100713.66;;;1.84
48854;BMP280;34673;52.808;17.856;2022-12-20T08:15:22;100707.91;;;1.89
48854;BMP280;34673;52.808;17.856;2022-12-20T08:17:49;100707.03;;;1.89
48854;BMP280;34673;52.808;17.856;2022-12-20T08:20:17;100715.59;;;1.91
48854;BMP280;34673;52.808;17.856;2022-12-20T08:22:44;100706.94;;;1.86
48854;BMP280;34673;52.808;17.856;2022-12-20T08:25:11;100712.22;;;1.92
48854;BMP280;34673;52.808;17.856;2022-12-20T08:27:39;100708.66;;;1.87
48854;BMP280;34673;52.808;17.856;2022-12-20T08:30:07;100721.66;;;1.94
48854;BMP280;34673;52.808;17.856;2022-12-20T08:32:36;100719.09;;;1.93
48854;BMP280;34673;52.808;17.856;2022-12-20T08:35:04;100724.19;;;1.93
48854;BMP280;34673;52.808;17.856;2022-12-20T08:37:32;100700.50;;;1.97
48854;BMP280;34673;52.808;17.856;2022-12-20T08:40:00;100705.69;;;2.00
48854;BMP280;34673;52.808;17.856;2022-12-20T08:42:29;100709.16;;;2.02
48854;BMP280;34673;52.808;17.856;2022-12-20T08:44:56;100695.38;;;1.97
48854;BMP280;34673;52.808;17.856;2022-12-20T08:47:23;100716.09;;;2.06
48854;BMP280;34673;52.808;17.856;2022-12-20T08:49:51;100717.94;;;2.10
48854;BMP280;34673;52.808;17.856;2022-12-20T08:52:18;100703.53;;;2.12
48854;BMP280;34673;52.808;17.856;2022-12-20T08:54:45;100699.34;;;2.14
48854;BMP280;34673;52.808;17.856;2022-12-20T08:57:13;100699.47;;;2.17
48854;BMP280;34673;52.808;17.856;2022-12-20T08:59:40;100709.75;;;2.20
48854;BMP280;34673;52.808;17.856;2022-12-20T09:02:08;100704.84;;;2.27
48854;BMP280;34673;52.808;17.856;2022-12-20T09:04:35;100699.91;;;2.33
48854;BMP280;34673;52.808;17.856;2022-12-20T09:07:03;100693.34;;;2.41
48854;BMP280;34673;52.808;17.856;2022-12-20T09:09:30;100690.19;;;2.48
48854;BMP280;34673;52.808;17.856;2022-12-20T09:11:58;100689.50;;;2.54
48854;BMP280;34673;52.808;17.856;2022-12-20T09:14:25;100678.50;;;2.56
48854;BMP280;34673;52.808;17.856;2022-12-20T09:16:52;100683.78;;;2.62
48854;BMP280;34673;52.808;17.856;2022-12-20T09:19:20;100682.06;;;2.61
48854;BMP280;34673;52.808;17.856;2022-12-20T09:21:47;100694.00;;;2.62
48854;BMP280;34673;52.808;17.856;2022-12-20T09:24:15;100699.09;;;2.62
48854;BMP280;34673;52.808;17.856;2022-12-20T09:26:43;100692.19;;;2.58
48854;BMP280;34673;52.808;17.856;2022-12-20T09:29:15;100693.81;;;2.56
48854;BMP280;34673;52.808;17.856;2022-12-20T09:31:53;100680.03;;;2.51
48854;BMP280;34673;52.808;17.856;2022-12-20T09:34:20;100673.31;;;2.53
48854;BMP280;34673;52.808;17.856;2022-12-20T09:36:47;100678.25;;;2.47
48854;BMP280;34673;52.808;17.856;2022-12-20T09:39:15;100690.25;;;2.51
48854;BMP280;34673;52.808;17.856;2022-12-20T09:41:43;100683.53;;;2.53
48854;BMP280;34673;52.808;17.856;2022-12-20T09:44:31;100674.09;;;2.51
48854;BMP280;34673;52.808;17.856;2022-12-20T09:47:04;100685.16;;;2.51
48854;BMP280;34673;52.808;17.856;2022-12-20T09:49:39;100680.88;;;2.50
48854;BMP280;34673;52.808;17.856;2022-12-20T09:57:59;100658.06;;;2.56
48854;BMP280;34673;52.808;17.856;2022-12-20T10:00:27;100657.25;;;2.57
48854;BMP280;34673;52.808;17.856;2022-12-20T10:02:56;100673.47;;;2.59
48854;BMP280;34673;52.808;17.856;2022-12-20T10:05:44;100666.72;;;2.61
48854;BMP280;34673;52.808;17.856;2022-12-20T10:16:55;100670.22;;;2.63
48854;BMP280;34673;52.808;17.856;2022-12-20T10:20:11;100665.19;;;2.66
48854;BMP280;34673;52.808;17.856;2022-12-20T10:25:23;100656.59;;;2.64
48854;BMP280;34673;52.808;17.856;2022-12-20T10:27:55;100659.31;;;2.69
48854;BMP280;34673;52.808;17.856;2022-12-20T10:30:25;100662.84;;;2.74
48854;BMP280;34673;52.808;17.856;2022-12-20T10:32:56;100646.63;;;2.74
48854;BMP280;34673;52.808;17.856;2022-12-20T10:35:28;100647.56;;;2.76
48854;BMP280;34673;52.808;17.856;2022-12-20T10:38:03;100650.97;;;2.76
48854;BMP280;34673;52.808;17.856;2022-12-20T10:40:42;100652.66;;;2.76
48854;BMP280;34673;52.808;17.856;2022-12-20T10:44:03;100645.84;;;2.75
48854;BMP280;34673;52.808;17.856;2022-12-20T10:46:44;100638.97;;;2.74
48854;BMP280;34673;52.808;17.856;2022-12-20T10:49:33;100633.06;;;2.75
48854;BMP280;34673;52.808;17.856;2022-12-20T10:54:37;100621.09;;;2.74
48854;BMP280;34673;52.808;17.856;2022-12-20T10:59:59;100633.06;;;2.75
48854;BMP280;34673;52.808;17.856;2022-12-20T11:02:36;100634.78;;;2.76
48854;BMP280;34673;52.808;17.856;2022-12-20T11:07:50;100627.97;;;2.75
48854;BMP280;34673;52.808;17.856;2022-12-20T11:10:38;100627.97;;;2.75
48854;BMP280;34673;52.808;17.856;2022-12-20T11:13:05;100636.50;;;2.77
48854;BMP280;34673;52.808;17.856;2022-12-20T11:15:50;100650.19;;;2.79
48854;BMP280;34673;52.808;17.856;2022-12-20T11:21:17;100650.28;;;2.82
48854;BMP280;34673;52.808;17.856;2022-12-20T11:30:20;100632.47;;;2.85
48854;BMP280;34673;52.808;17.856;2022-12-20T11:36:05;100624.91;;;2.88
48854;BMP280;34673;52.808;17.856;2022-12-20T11:38:42;100626.63;;;2.89
48854;BMP280;34673;52.808;17.856;2022-12-20T11:41:34;100616.34;;;2.86
48854;BMP280;34673;52.808;17.856;2022-12-20T11:47:20;100619.09;;;2.94
48854;BMP280;34673;52.808;17.856;2022-12-20T11:50:32;100621.59;;;2.92
48854;BMP280;34673;52.808;17.856;2022-12-20T11:53:07;100610.41;;;2.87
48854;BMP280;34673;52.808;17.856;2022-12-20T11:55:42;100600.25;;;2.90
48854;BMP280;34673;52.808;17.856;2022-12-20T12:03:25;100605.63;;;2.99
48854;BMP280;34673;52.808;17.856;2022-12-20T12:06:28;100606.53;;;3.01
48854;BMP280;34673;52.808;17.856;2022-12-20T12:09:19;100604.88;;;3.03
48854;BMP280;34673;52.808;17.856;2022-12-20T12:11:55;100591.16;;;3.00
48854;BMP280;34673;52.808;17.856;2022-12-20T12:17:17;100580.00;;;2.96
48854;BMP280;34673;52.808;17.856;2022-12-20T12:19:48;100594.66;;;3.03
48854;BMP280;34673;52.808;17.856;2022-12-20T12:22:23;100581.00;;;3.01
48854;BMP280;34673;52.808;17.856;2022-12-20T12:24:57;100594.56;;;3.00
48854;BMP280;34673;52.808;17.856;2022-12-20T12:27:27;100585.19;;;2.99
48854;BMP280;34673;52.808;17.856;2022-12-20T12:29:55;100581.91;;;3.05
48854;BMP280;34673;52.808;17.856;2022-12-20T12:46:41;100579.56;;;3.13
48854;BMP280;34673;52.808;17.856;2022-12-20T12:49:15;100575.34;;;3.15
48854;BMP280;34673;52.808;17.856;2022-12-20T12:51:57;100567.78;;;3.18
48854;BMP280;34673;52.808;17.856;2022-12-20T12:54:28;100549.75;;;3.13
48854;BMP280;34673;52.808;17.856;2022-12-20T12:57:09;100562.66;;;3.18
48854;BMP280;34673;52.808;17.856;2022-12-20T12:59:39;100560.19;;;3.21
48854;BMP280;34673;52.808;17.856;2022-12-20T13:21:23;100536.34;;;3.22
48854;BMP280;34673;52.808;17.856;2022-12-20T13:27:37;100544.00;;;3.22
48854;BMP280;34673;52.808;17.856;2022-12-20T13:33:15;100530.38;;;3.23
48854;BMP280;34673;52.808;17.856;2022-12-20T13:35:53;100518.44;;;3.22
48854;BMP280;34673;52.808;17.856;2022-12-20T13:38:55;100516.72;;;3.21
48854;BMP280;34673;52.808;17.856;2022-12-20T13:41:40;100521.00;;;3.22
48854;BMP280;34673;52.808;17.856;2022-12-20T13:46:44;100523.56;;;3.22
48854;BMP280;34673;52.808;17.856;2022-12-20T13:54:46;100528.66;;;3.22
48854;BMP280;34673;52.808;17.856;2022-12-20T13:57:41;100532.91;;;3.21
48854;BMP280;34673;52.808;17.856;2022-12-20T14:00:18;100527.81;;;3.21
48854;BMP280;34673;52.808;17.856;2022-12-20T14:02:48;100529.44;;;3.19
48854;BMP280;34673;52.808;17.856;2022-12-20T14:05:24;100529.44;;;3.18
48854;BMP280;34673;52.808;17.856;2022-12-20T14:08:01;100530.25;;;3.17
48854;BMP280;34673;52.808;17.856;2022-12-20T14:10:32;100530.25;;;3.17
48854;BMP280;34673;52.808;17.856;2022-12-20T14:12:59;100519.88;;;3.12
48854;BMP280;34673;52.808;17.856;2022-12-20T14:15:33;100519.09;;;3.13
48854;BMP280;34673;52.808;17.856;2022-12-20T14:18:15;100533.56;;;3.13
48854;BMP280;34673;52.808;17.856;2022-12-20T14:20:48;100514.75;;;3.10
48854;BMP280;34673;52.808;17.856;2022-12-20T14:23:20;100500.28;;;3.11
48854;BMP280;34673;52.808;17.856;2022-12-20T14:25:56;100509.66;;;3.10
48854;BMP280;34673;52.808;17.856;2022-12-20T14:28:47;100506.13;;;3.05
48854;BMP280;34673;52.808;17.856;2022-12-20T14:33:49;100512.88;;;3.03
48854;BMP280;34673;52.808;17.856;2022-12-20T14:36:19;100515.41;;;3.02
48854;BMP280;34673;52.808;17.856;2022-12-20T14:38:51;100487.09;;;2.94
48854;BMP280;34673;52.808;17.856;2022-12-20T14:41:44;100494.84;;;2.97
48854;BMP280;34673;52.808;17.856;2022-12-20T14:44:16;100476.88;;;2.94
48854;BMP280;34673;52.808;17.856;2022-12-20T14:46:55;100489.59;;;2.93
48854;BMP280;34673;52.808;17.856;2022-12-20T14:49:46;100475.91;;;2.89
48854;BMP280;34673;52.808;17.856;2022-12-20T15:08:23;100478.53;;;2.92
48854;BMP280;34673;52.808;17.856;2022-12-20T15:13:32;100429.78;;;2.83
48854;BMP280;34673;52.808;17.856;2022-12-20T15:16:11;100444.47;;;2.93
48854;BMP280;34673;52.808;17.856;2022-12-20T15:18:40;100434.25;;;2.93
48854;BMP280;34673;52.808;17.856;2022-12-20T15:21:28;100454.53;;;2.87
48854;BMP280;34673;52.808;17.856;2022-12-20T15:23:57;100440.19;;;2.91
48854;BMP280;34673;52.808;17.856;2022-12-20T15:26:27;100439.28;;;2.90
48854;BMP280;34673;52.808;17.856;2022-12-20T15:28:54;100442.75;;;2.92
48854;BMP280;34673;52.808;17.856;2022-12-20T15:31:23;100449.50;;;2.90
48854;BMP280;34673;52.808;17.856;2022-12-20T15:33:59;100449.56;;;2.93
48854;BMP280;34673;52.808;17.856;2022-12-20T15:36:28;100445.34;;;2.94
48854;BMP280;34673;52.808;17.856;2022-12-20T15:38:57;100436.00;;;2.94
48854;BMP280;34673;52.808;17.856;2022-12-20T15:41:44;100437.66;;;2.92
48854;BMP280;34673;52.808;17.856;2022-12-20T15:44:23;100436.13;;;2.99
48854;BMP280;34673;52.808;17.856;2022-12-20T15:46:51;100444.66;;;2.99
48854;BMP280;34673;52.808;17.856;2022-12-20T15:49:22;100449.81;;;3.02
48854;BMP280;34673;52.808;17.856;2022-12-20T15:51:51;100459.25;;;3.05
48854;BMP280;34673;52.808;17.856;2022-12-20T15:54:28;100452.50;;;3.08
48854;BMP280;34673;52.808;17.856;2022-12-20T15:56:58;100457.69;;;3.10
48854;BMP280;34673;52.808;17.856;2022-12-20T15:59:29;100446.66;;;3.13
48854;BMP280;34673;52.808;17.856;2022-12-20T16:02:22;100456.88;;;3.13
48854;BMP280;34673;52.808;17.856;2022-12-20T16:04:52;100455.13;;;3.11
48854;BMP280;34673;52.808;17.856;2022-12-20T16:07:20;100461.09;;;3.10
48854;BMP280;34673;52.808;17.856;2022-12-20T16:09:48;100451.78;;;3.13
48854;BMP280;34673;52.808;17.856;2022-12-20T16:12:20;100460.25;;;3.11
48854;BMP280;34673;52.808;17.856;2022-12-20T16:14:48;100454.34;;;3.13
48854;BMP280;34673;52.808;17.856;2022-12-20T16:17:16;100443.13;;;3.07
48854;BMP280;34673;52.808;17.856;2022-12-20T16:19:43;100444.84;;;3.08
48854;BMP280;34673;52.808;17.856;2022-12-20T16:22:19;100445.69;;;3.09
48854;BMP280;34673;52.808;17.856;2022-12-20T16:24:48;100444.84;;;3.08
48854;BMP280;34673;52.808;17.856;2022-12-20T16:27:15;100453.50;;;3.14
48854;BMP280;34673;52.808;17.856;2022-12-20T16:29:43;100440.72;;;3.14
48854;BMP280;34673;52.808;17.856;2022-12-20T16:32:16;100443.28;;;3.14
48854;BMP280;34673;52.808;17.856;2022-12-20T16:34:44;100440.75;;;3.15
48854;BMP280;34673;52.808;17.856;2022-12-20T16:37:12;100438.16;;;3.14